Time;durP1;ratioP1;P1;durP2;ratioP2;P2;SDS_P1;SDS_P2;PMS_P1;PMS_P2;Temp;Humidity;BMP_temperature;BMP_pressure;BME280_temperature;BME280_humidity;BME280_pressure;Samples;Min_cycle;Max_cycle;Signal;HPM_P1;HPM_P2
2021/05/27 05:22:45;;;;;;;0.50;0.50;;;;;;;;;;5399374;22;20260;-55
2021/05/27 05:25:11;;;;;;;1.47;0.57;;;;;;;;;;4777000;28;7106489;-54
2021/05/27 05:27:39;;;;;;;1.60;0.53;;;;;;;;;;5013787;28;20923;-56
2021/05/27 05:30:12;;;;;;;0.50;0.50;;;;;;;;;;5017630;28;20719;-56
2021/05/27 05:32:42;;;;;;;0.50;0.50;;;;;;;;;;5017677;28;20237;-54
2021/05/27 05:35:10;;;;;;;0.40;0.40;;;;;;;;;;5019584;28;20253;-55
2021/05/27 05:37:38;;;;;;;1.70;1.07;;;;;;;;;;5022154;28;20281;-55
2021/05/27 05:40:08;;;;;;;0.40;0.40;;;;;;;;;;5019967;28;20588;-54
2021/05/27 05:42:34;;;;;;;0.50;0.50;;;;;;;;;;5003652;28;20249;-54
2021/05/27 05:45:01;;;;;;;0.50;0.50;;;;;;;;;;5004738;28;20232;-55
2021/05/27 05:47:27;;;;;;;1.23;0.53;;;;;;;;;;5022079;28;20240;-55
2021/05/27 05:49:54;;;;;;;0.80;0.60;;;;;;;;;;5019527;28;20190;-55
2021/05/27 05:52:22;;;;;;;0.60;0.50;;;;;;;;;;5005640;28;20737;-55
2021/05/27 05:54:53;;;;;;;0.60;0.60;;;;;;;;;;5022811;28;20625;-55
2021/05/27 05:57:20;;;;;;;1.00;0.60;;;;;;;;;;5022614;28;20229;-55
2021/05/27 05:59:45;;;;;;;0.70;0.60;;;;;;;;;;5018554;28;20598;-55
2021/05/27 06:02:13;;;;;;;1.00;0.73;;;;;;;;;;4998383;28;20210;-54
2021/05/27 06:04:38;;;;;;;0.50;0.50;;;;;;;;;;5021735;28;20201;-55
2021/05/27 06:07:06;;;;;;;0.70;0.70;;;;;;;;;;5013909;28;20654;-54
2021/05/27 06:09:31;;;;;;;0.90;0.67;;;;;;;;;;5019639;28;20182;-55
2021/05/27 06:11:59;;;;;;;1.10;0.80;;;;;;;;;;5025790;28;20282;-54
2021/05/27 06:14:27;;;;;;;0.80;0.80;;;;;;;;;;4995984;28;20265;-59
2021/05/27 06:16:57;;;;;;;0.67;0.67;;;;;;;;;;5004576;28;20197;-55
2021/05/27 06:19:22;;;;;;;0.57;0.57;;;;;;;;;;5023610;28;20245;-55
2021/05/27 06:21:48;;;;;;;0.50;0.50;;;;;;;;;;5017155;28;20245;-56
2021/05/27 06:24:13;;;;;;;0.60;0.60;;;;;;;;;;5021173;28;20812;-55
2021/05/27 06:26:38;;;;;;;0.70;0.70;;;;;;;;;;5015002;28;20191;-55
2021/05/27 06:29:06;;;;;;;0.50;0.50;;;;;;;;;;5017846;28;20191;-54
2021/05/27 06:31:32;;;;;;;0.53;0.53;;;;;;;;;;5019183;28;20321;-52
2021/05/27 06:34:00;;;;;;;0.80;0.70;;;;;;;;;;5026172;28;20274;-52
2021/05/27 06:36:27;;;;;;;1.53;0.87;;;;;;;;;;5026272;28;20244;-52
2021/05/27 06:38:52;;;;;;;0.70;0.70;;;;;;;;;;5022469;28;20194;-53
2021/05/27 06:41:20;;;;;;;0.83;0.70;;;;;;;;;;5026017;28;20194;-53
2021/05/27 06:43:50;;;;;;;0.87;0.70;;;;;;;;;;5023884;28;20865;-54
2021/05/27 06:46:18;;;;;;;2.30;0.70;;;;;;;;;;5026119;28;20183;-53
2021/05/27 06:48:46;;;;;;;1.33;0.83;;;;;;;;;;5024841;28;20326;-53
2021/05/27 06:51:16;;;;;;;0.70;0.70;;;;;;;;;;5025610;28;20199;-53
2021/05/27 06:53:43;;;;;;;1.13;0.63;;;;;;;;;;5025105;28;20608;-53
2021/05/27 06:56:11;;;;;;;1.37;0.93;;;;;;;;;;5000115;28;20222;-53
2021/05/27 06:58:41;;;;;;;0.90;0.80;;;;;;;;;;5024231;28;20191;-53
2021/05/27 07:01:08;;;;;;;0.90;0.80;;;;;;;;;;5015285;28;20206;-52
2021/05/27 07:03:36;;;;;;;1.00;0.70;;;;;;;;;;5010027;28;20629;-53
2021/05/27 07:06:05;;;;;;;2.63;1.00;;;;;;;;;;5023065;28;20244;-53
2021/05/27 07:08:31;;;;;;;1.50;0.70;;;;;;;;;;5025343;28;20190;-53
2021/05/27 07:10:59;;;;;;;0.73;0.73;;;;;;;;;;5009668;28;20195;-55
2021/05/27 07:13:29;;;;;;;0.93;0.70;;;;;;;;;;5014085;28;20207;-52
2021/05/27 07:15:57;;;;;;;0.80;0.80;;;;;;;;;;5016970;28;20322;-52
2021/05/27 07:18:22;;;;;;;0.90;0.90;;;;;;;;;;5017106;28;20249;-53
2021/05/27 07:20:49;;;;;;;1.00;0.80;;;;;;;;;;5014339;28;20190;-53
2021/05/27 07:23:17;;;;;;;0.80;0.80;;;;;;;;;;5019261;28;20245;-52
2021/05/27 07:25:44;;;;;;;3.00;0.87;;;;;;;;;;5012170;28;20222;-53
2021/05/27 07:28:14;;;;;;;1.37;0.90;;;;;;;;;;5022687;28;20213;-53
2021/05/27 07:30:42;;;;;;;1.73;0.90;;;;;;;;;;5021127;28;20246;-53
2021/05/27 07:33:10;;;;;;;0.67;0.67;;;;;;;;;;5019745;28;20626;-53
2021/05/27 07:35:35;;;;;;;1.97;1.30;;;;;;;;;;5012687;28;20233;-52
2021/05/27 07:38:02;;;;;;;1.20;1.10;;;;;;;;;;5022750;28;20224;-55
2021/05/27 07:40:32;;;;;;;1.10;1.00;;;;;;;;;;5016456;28;20629;-52
2021/05/27 07:43:02;;;;;;;1.63;1.23;;;;;;;;;;5018011;28;20210;-52
2021/05/27 07:45:32;;;;;;;2.20;0.93;;;;;;;;;;5021927;28;20189;-54
2021/05/27 07:48:02;;;;;;;1.03;0.90;;;;;;;;;;5018121;28;20244;-52
2021/05/27 07:50:32;;;;;;;1.10;1.00;;;;;;;;;;5021358;28;20195;-51
2021/05/27 07:53:00;;;;;;;0.70;0.70;;;;;;;;;;5021283;28;20306;-52
2021/05/27 07:55:26;;;;;;;0.97;0.80;;;;;;;;;;5027455;28;20317;-55
2021/05/27 07:57:53;;;;;;;1.00;0.90;;;;;;;;;;5019175;28;20265;-52
2021/05/27 08:00:23;;;;;;;2.30;0.80;;;;;;;;;;5020090;28;20209;-54
2021/05/27 08:02:51;;;;;;;0.97;0.90;;;;;;;;;;5005442;28;20213;-53
2021/05/27 08:05:19;;;;;;;1.40;0.90;;;;;;;;;;5017890;28;20282;-53
2021/05/27 08:07:47;;;;;;;1.27;1.17;;;;;;;;;;5003680;28;20201;-56
2021/05/27 08:10:13;;;;;;;0.87;0.87;;;;;;;;;;5020419;28;20249;-54
2021/05/27 08:12:43;;;;;;;1.00;0.90;;;;;;;;;;5004317;28;20214;-55
2021/05/27 08:15:09;;;;;;;0.77;0.77;;;;;;;;;;5025341;28;20290;-55
2021/05/27 08:17:39;;;;;;;0.83;0.83;;;;;;;;;;5023039;28;20622;-54
2021/05/27 08:20:08;;;;;;;2.73;1.50;;;;;;;;;;5010445;28;20194;-54
2021/05/27 08:22:38;;;;;;;1.50;1.30;;;;;;;;;;5017909;28;20628;-55
2021/05/27 08:25:04;;;;;;;1.20;0.93;;;;;;;;;;5021701;28;20201;-53
2021/05/27 08:27:34;;;;;;;1.87;1.30;;;;;;;;;;5008914;28;20222;-52
2021/05/27 08:30:02;;;;;;;1.10;0.90;;;;;;;;;;5015696;28;20334;-52
2021/05/27 08:32:27;;;;;;;1.27;1.00;;;;;;;;;;5019260;28;20625;-51
2021/05/27 08:34:53;;;;;;;0.77;0.77;;;;;;;;;;5015906;28;20218;-51
2021/05/27 08:37:20;;;;;;;0.70;0.70;;;;;;;;;;5000176;28;20201;-53
2021/05/27 08:39:48;;;;;;;0.70;0.70;;;;;;;;;;5012067;28;20180;-53
2021/05/27 08:42:17;;;;;;;1.07;0.80;;;;;;;;;;5020750;28;20226;-55
2021/05/27 08:44:49;;;;;;;0.60;0.60;;;;;;;;;;5024632;28;20704;-53
2021/05/27 08:47:20;;;;;;;0.90;0.70;;;;;;;;;;5019128;28;20281;-52
2021/05/27 08:49:49;;;;;;;0.70;0.70;;;;;;;;;;5022181;28;20191;-54
2021/05/27 08:52:14;;;;;;;0.80;0.70;;;;;;;;;;5017414;28;20195;-54
2021/05/27 08:54:45;;;;;;;0.77;0.60;;;;;;;;;;5001343;28;20215;-52
2021/05/27 08:57:12;;;;;;;1.10;0.80;;;;;;;;;;5026506;28;20213;-52
2021/05/27 08:59:37;;;;;;;0.90;0.70;;;;;;;;;;5018755;28;20325;-54
2021/05/27 09:02:07;;;;;;;0.60;0.60;;;;;;;;;;5022239;28;20298;-55
2021/05/27 09:04:35;;;;;;;1.13;0.67;;;;;;;;;;5020184;28;20191;-52
2021/05/27 09:07:01;;;;;;;0.70;0.70;;;;;;;;;;4999259;28;20199;-53
2021/05/27 09:09:50;;;;;;;0.73;0.60;;;;;;;;;;5018070;28;20281;-55
2021/05/27 09:12:28;;;;;;;0.60;0.60;;;;;;;;;;5013789;28;20305;-56
2021/05/27 09:14:57;;;;;;;1.77;0.60;;;;;;;;;;5020329;28;20284;-53
2021/05/27 09:17:22;;;;;;;0.60;0.60;;;;;;;;;;5022431;28;20248;-52
2021/05/27 09:20:40;;;;;;;1.53;0.63;;;;;;;;;;4997056;28;20199;-55
2021/05/27 09:23:21;;;;;;;0.80;0.50;;;;;;;;;;4970417;28;20230;-52
2021/05/27 09:25:53;;;;;;;0.53;0.53;;;;;;;;;;5017988;28;20191;-54
2021/05/27 09:28:23;;;;;;;0.50;0.50;;;;;;;;;;5015528;28;20199;-53
2021/05/27 09:30:53;;;;;;;0.50;0.50;;;;;;;;;;5019420;28;20195;-54
2021/05/27 09:33:20;;;;;;;2.13;0.80;;;;;;;;;;5012372;28;20702;-54
2021/05/27 09:35:47;;;;;;;0.80;0.70;;;;;;;;;;5001291;28;20215;-54
2021/05/27 09:38:16;;;;;;;1.33;0.60;;;;;;;;;;5019040;28;20198;-54
2021/05/27 09:40:46;;;;;;;0.70;0.63;;;;;;;;;;5013653;28;20230;-55
2021/05/27 09:43:22;;;;;;;0.53;0.53;;;;;;;;;;5003267;28;20233;-54
2021/05/27 09:46:05;;;;;;;0.40;0.40;;;;;;;;;;5000236;28;20186;-56
2021/05/27 09:48:36;;;;;;;0.70;0.70;;;;;;;;;;5000434;28;20663;-55
2021/05/27 09:51:05;;;;;;;0.73;0.57;;;;;;;;;;5022690;28;20186;-52
2021/05/27 09:53:36;;;;;;;1.53;1.00;;;;;;;;;;5017036;28;20713;-53
2021/05/27 09:56:04;;;;;;;0.93;0.80;;;;;;;;;;5021720;28;20232;-54
2021/05/27 09:58:32;;;;;;;0.57;0.50;;;;;;;;;;5001817;28;20186;-53
2021/05/27 10:01:10;;;;;;;0.50;0.50;;;;;;;;;;5003418;28;20198;-54
2021/05/27 10:03:40;;;;;;;0.60;0.60;;;;;;;;;;5013418;28;20682;-54
2021/05/27 10:06:16;;;;;;;0.90;0.57;;;;;;;;;;5014291;28;20194;-56
2021/05/27 10:08:54;;;;;;;1.07;0.70;;;;;;;;;;5021078;28;20218;-54
2021/05/27 10:11:22;;;;;;;0.60;0.60;;;;;;;;;;5014460;28;20345;-55
2021/05/27 10:13:51;;;;;;;0.60;0.60;;;;;;;;;;5013836;28;20271;-54
2021/05/27 10:16:21;;;;;;;0.53;0.53;;;;;;;;;;5021195;28;20214;-55
2021/05/27 10:18:51;;;;;;;0.60;0.60;;;;;;;;;;5017255;28;20218;-53
2021/05/27 10:21:19;;;;;;;0.80;0.80;;;;;;;;;;5019997;28;20224;-53
2021/05/27 10:23:49;;;;;;;2.23;0.80;;;;;;;;;;5000180;28;20207;-55
2021/05/27 10:26:19;;;;;;;0.80;0.70;;;;;;;;;;5004961;28;20545;-52
2021/05/27 10:28:52;;;;;;;1.13;0.90;;;;;;;;;;5020206;28;20185;-52
2021/05/27 10:31:22;;;;;;;0.80;0.70;;;;;;;;;;5014392;28;20270;-55
2021/05/27 10:33:52;;;;;;;0.60;0.57;;;;;;;;;;5019428;28;20317;-52
2021/05/27 10:36:18;;;;;;;0.90;0.63;;;;;;;;;;5020114;28;20259;-56
2021/05/27 10:38:49;;;;;;;1.77;0.63;;;;;;;;;;5004068;28;20614;-54
2021/05/27 10:41:31;;;;;;;0.70;0.70;;;;;;;;;;5016100;28;20191;-51
2021/05/27 10:44:00;;;;;;;0.93;0.70;;;;;;;;;;5005475;28;20248;-55
2021/05/27 10:46:28;;;;;;;0.83;0.70;;;;;;;;;;5016082;28;20190;-53
2021/05/27 10:48:54;;;;;;;0.77;0.77;;;;;;;;;;5020871;28;20245;-52
2021/05/27 10:51:30;;;;;;;1.30;1.00;;;;;;;;;;5004955;28;20251;-53
2021/05/27 10:54:00;;;;;;;1.63;1.10;;;;;;;;;;5015706;28;20210;-52
2021/05/27 10:56:33;;;;;;;0.80;0.80;;;;;;;;;;5016920;28;21015;-53
2021/05/27 10:59:02;;;;;;;1.00;0.80;;;;;;;;;;5021200;28;20273;-55
2021/05/27 11:01:28;;;;;;;1.87;1.63;;;;;;;;;;5015636;28;20187;-55
2021/05/27 11:03:59;;;;;;;0.90;0.90;;;;;;;;;;5019442;28;20222;-53
2021/05/27 11:06:31;;;;;;;1.53;1.00;;;;;;;;;;5016674;28;20187;-55
2021/05/27 11:09:20;;;;;;;1.10;0.83;;;;;;;;;;5017463;28;20198;-54
2021/05/27 11:11:56;;;;;;;1.80;0.80;;;;;;;;;;5018176;28;20215;-53
2021/05/27 11:14:24;;;;;;;2.90;0.90;;;;;;;;;;5010494;28;20209;-54
2021/05/27 11:17:05;;;;;;;2.57;0.90;;;;;;;;;;5015683;28;20191;-54
2021/05/27 11:25:24;;;;;;;2.00;0.90;;;;;;;;;;5018726;28;20324;-54
2021/05/27 11:27:55;;;;;;;1.07;0.80;;;;;;;;;;5025285;28;20182;-55
2021/05/27 11:30:28;;;;;;;1.07;0.80;;;;;;;;;;5022151;28;20202;-54
2021/05/27 11:33:05;;;;;;;1.10;1.00;;;;;;;;;;5024983;28;20265;-54
2021/05/27 11:35:40;;;;;;;1.37;0.90;;;;;;;;;;5018085;28;20558;-55
2021/05/27 11:38:06;;;;;;;0.70;0.70;;;;;;;;;;5002770;28;20190;-54
2021/05/27 11:40:40;;;;;;;1.83;0.80;;;;;;;;;;5026395;28;20629;-55
2021/05/27 11:43:05;;;;;;;0.80;0.80;;;;;;;;;;5000472;28;20258;-53
2021/05/27 11:45:50;;;;;;;0.90;0.90;;;;;;;;;;5024161;28;20666;-53
2021/05/27 11:48:23;;;;;;;1.53;1.00;;;;;;;;;;5022619;28;20608;-53
2021/05/27 11:50:51;;;;;;;0.70;0.70;;;;;;;;;;5020480;28;20201;-53
2021/05/27 11:53:20;;;;;;;1.07;1.07;;;;;;;;;;5021503;28;20203;-53
2021/05/27 11:55:58;;;;;;;0.70;0.70;;;;;;;;;;5021560;28;20200;-53
2021/05/27 11:58:37;;;;;;;0.90;0.87;;;;;;;;;;5006283;28;20982;-53
2021/05/27 12:01:19;;;;;;;0.80;0.80;;;;;;;;;;5020579;28;20198;-53
2021/05/27 12:04:03;;;;;;;3.37;0.90;;;;;;;;;;5016278;28;20194;-54
2021/05/27 12:06:45;;;;;;;0.60;0.60;;;;;;;;;;5023159;28;20665;-54
2021/05/27 12:09:20;;;;;;;0.60;0.60;;;;;;;;;;5017830;28;20191;-54
2021/05/27 12:11:50;;;;;;;1.70;0.87;;;;;;;;;;5021186;28;20253;-54
2021/05/27 12:14:22;;;;;;;1.50;0.70;;;;;;;;;;5021606;28;20182;-54
2021/05/27 12:16:53;;;;;;;0.60;0.60;;;;;;;;;;5018860;28;20322;-54
2021/05/27 12:19:23;;;;;;;0.90;0.70;;;;;;;;;;4992784;28;20198;-54
2021/05/27 12:21:56;;;;;;;0.87;0.77;;;;;;;;;;5019935;28;20277;-55
2021/05/27 12:24:33;;;;;;;0.80;0.70;;;;;;;;;;5019389;28;20187;-55
2021/05/27 12:27:00;;;;;;;0.80;0.80;;;;;;;;;;5020493;28;20228;-54
2021/05/27 12:29:29;;;;;;;0.60;0.60;;;;;;;;;;5022220;28;20302;-54
2021/05/27 12:32:01;;;;;;;0.60;0.60;;;;;;;;;;5022162;28;20190;-53
2021/05/27 12:34:29;;;;;;;0.60;0.60;;;;;;;;;;5018036;28;20194;-54
2021/05/27 12:36:58;;;;;;;0.57;0.57;;;;;;;;;;5022575;28;20223;-54
2021/05/27 12:39:32;;;;;;;1.33;0.60;;;;;;;;;;5021979;28;20757;-54
2021/05/27 12:41:58;;;;;;;0.80;0.60;;;;;;;;;;5006264;28;20272;-56
2021/05/27 12:44:47;;;;;;;0.60;0.60;;;;;;;;;;5010833;28;20193;-54
2021/05/27 12:47:24;;;;;;;0.70;0.60;;;;;;;;;;5019278;28;20200;-54
2021/05/27 12:49:52;;;;;;;0.83;0.60;;;;;;;;;;5017874;28;20205;-54
2021/05/27 12:52:44;;;;;;;0.70;0.60;;;;;;;;;;5017601;28;20712;-55
2021/05/27 12:55:10;;;;;;;0.60;0.50;;;;;;;;;;5019743;28;20210;-53
2021/05/27 12:57:50;;;;;;;0.77;0.60;;;;;;;;;;5007730;28;20197;-54
2021/05/27 13:00:18;;;;;;;0.60;0.60;;;;;;;;;;5016326;28;20568;-53
2021/05/27 13:03:00;;;;;;;0.60;0.60;;;;;;;;;;5024248;28;20207;-52
2021/05/27 13:05:25;;;;;;;0.70;0.70;;;;;;;;;;5013785;28;20796;-54
2021/05/27 13:07:59;;;;;;;0.60;0.60;;;;;;;;;;5026735;28;20274;-53
2021/05/27 13:10:35;;;;;;;0.73;0.63;;;;;;;;;;5031508;28;20720;-54
2021/05/27 13:13:02;;;;;;;0.60;0.60;;;;;;;;;;5022950;28;20271;-55
2021/05/27 13:15:45;;;;;;;0.50;0.50;;;;;;;;;;5028450;28;20628;-53
2021/05/27 13:18:16;;;;;;;0.50;0.50;;;;;;;;;;5025329;28;20217;-54
2021/05/27 13:20:55;;;;;;;1.23;0.60;;;;;;;;;;5030225;28;20238;-55
2021/05/27 13:23:28;;;;;;;0.50;0.50;;;;;;;;;;5024788;28;20999;-53
2021/05/27 13:26:14;;;;;;;0.60;0.60;;;;;;;;;;5021058;28;20720;-56
2021/05/27 13:28:43;;;;;;;0.67;0.60;;;;;;;;;;5017847;28;20187;-54
2021/05/27 13:31:10;;;;;;;3.07;0.80;;;;;;;;;;5017342;28;20190;-53
2021/05/27 13:33:42;;;;;;;0.93;0.50;;;;;;;;;;5020069;28;20210;-55
2021/05/27 13:36:08;;;;;;;0.97;0.70;;;;;;;;;;5021535;28;20796;-54
2021/05/27 13:38:33;;;;;;;0.63;0.63;;;;;;;;;;5019707;28;20186;-54
2021/05/27 13:41:04;;;;;;;0.60;0.60;;;;;;;;;;5019042;28;20258;-53
2021/05/27 13:43:34;;;;;;;1.03;0.70;;;;;;;;;;5019916;28;20733;-55
2021/05/27 13:46:04;;;;;;;0.67;0.60;;;;;;;;;;5024278;28;20206;-53
2021/05/27 13:48:29;;;;;;;1.23;0.80;;;;;;;;;;5022138;28;20236;-54
2021/05/27 13:50:57;;;;;;;1.10;0.70;;;;;;;;;;5024608;28;20191;-55
2021/05/27 13:53:24;;;;;;;0.80;0.80;;;;;;;;;;5022660;28;20203;-52
2021/05/27 13:55:55;;;;;;;0.70;0.70;;;;;;;;;;5021551;28;20935;-52
2021/05/27 13:58:25;;;;;;;1.50;1.00;;;;;;;;;;4997493;28;20273;-54
2021/05/27 14:00:52;;;;;;;1.43;0.90;;;;;;;;;;5021928;28;20187;-55
2021/05/27 14:03:25;;;;;;;1.17;0.80;;;;;;;;;;5020102;28;20718;-53
2021/05/27 14:05:53;;;;;;;1.47;1.13;;;;;;;;;;5020010;28;20194;-51
2021/05/27 14:08:20;;;;;;;1.13;0.90;;;;;;;;;;5023608;28;20221;-53
2021/05/27 14:10:50;;;;;;;1.57;0.97;;;;;;;;;;5024455;28;20218;-53
2021/05/27 14:13:20;;;;;;;1.03;0.90;;;;;;;;;;5019428;28;20214;-53
2021/05/27 14:15:47;;;;;;;1.07;0.90;;;;;;;;;;5034819;28;20763;-54
2021/05/27 14:18:12;;;;;;;1.20;1.10;;;;;;;;;;5018570;28;20183;-54
2021/05/27 14:20:40;;;;;;;0.97;0.90;;;;;;;;;;5021743;28;20190;-54
2021/05/27 14:23:11;;;;;;;1.57;0.97;;;;;;;;;;5017711;28;20221;-53
2021/05/27 14:25:40;;;;;;;2.10;0.80;;;;;;;;;;5021367;28;20217;-53
2021/05/27 14:28:07;;;;;;;0.97;0.97;;;;;;;;;;5020215;28;20248;-55
2021/05/27 14:30:34;;;;;;;1.10;1.00;;;;;;;;;;5017519;28;20191;-54
2021/05/27 14:33:02;;;;;;;1.03;0.93;;;;;;;;;;5023939;28;20416;-55
2021/05/27 14:35:32;;;;;;;0.90;0.80;;;;;;;;;;5017992;28;20752;-55
2021/05/27 14:37:57;;;;;;;1.07;0.90;;;;;;;;;;5022755;28;20265;-56
2021/05/27 14:40:22;;;;;;;1.17;0.80;;;;;;;;;;5020525;28;20769;-52
2021/05/27 14:42:50;;;;;;;1.13;0.93;;;;;;;;;;4991481;28;20238;-55
2021/05/27 14:45:17;;;;;;;1.93;0.80;;;;;;;;;;5013703;28;20337;-55
2021/05/27 14:47:43;;;;;;;0.83;0.73;;;;;;;;;;5014791;28;20195;-54
2021/05/27 14:50:12;;;;;;;0.70;0.70;;;;;;;;;;5023298;28;20261;-53
2021/05/27 14:52:40;;;;;;;0.80;0.80;;;;;;;;;;5016757;28;20280;-54
2021/05/27 14:55:06;;;;;;;0.77;0.70;;;;;;;;;;5025324;28;20230;-55
2021/05/27 14:57:34;;;;;;;1.83;0.90;;;;;;;;;;5008316;28;20218;-55
2021/05/27 15:00:01;;;;;;;2.00;0.90;;;;;;;;;;5017718;28;20190;-52
2021/05/27 15:02:34;;;;;;;1.07;0.83;;;;;;;;;;5026311;28;20285;-55
2021/05/27 15:05:01;;;;;;;0.87;0.83;;;;;;;;;;5020389;28;20897;-53
2021/05/27 15:07:27;;;;;;;1.10;0.90;;;;;;;;;;5017308;28;20626;-53
2021/05/27 15:09:52;;;;;;;1.00;1.00;;;;;;;;;;5018200;28;20206;-53
2021/05/27 15:12:22;;;;;;;2.50;1.20;;;;;;;;;;5021619;28;20292;-54
2021/05/27 15:14:52;;;;;;;2.13;1.37;;;;;;;;;;5021865;28;20568;-54
2021/05/27 15:17:18;;;;;;;1.90;1.50;;;;;;;;;;5025029;28;20226;-54
2021/05/27 15:19:50;;;;;;;2.70;1.17;;;;;;;;;;5018540;28;20203;-54
2021/05/27 15:22:18;;;;;;;2.10;1.50;;;;;;;;;;5019280;28;20265;-54
2021/05/27 15:24:46;;;;;;;1.67;1.20;;;;;;;;;;5019007;28;20894;-54
2021/05/27 15:27:12;;;;;;;1.20;1.10;;;;;;;;;;5020332;28;20178;-53
2021/05/27 15:29:39;;;;;;;1.20;1.10;;;;;;;;;;5024656;28;21402;-54
2021/05/27 15:32:07;;;;;;;4.67;1.23;;;;;;;;;;5007697;28;20289;-54
2021/05/27 15:34:37;;;;;;;2.80;1.20;;;;;;;;;;5016250;28;20198;-55
2021/05/27 15:37:06;;;;;;;3.23;1.20;;;;;;;;;;5026088;28;20193;-53
2021/05/27 15:39:34;;;;;;;6.07;1.60;;;;;;;;;;5019809;28;20241;-54
2021/05/27 15:42:02;;;;;;;3.10;1.57;;;;;;;;;;5004157;28;20628;-53
2021/05/27 15:44:27;;;;;;;3.77;1.60;;;;;;;;;;5024726;28;20707;-54
2021/05/27 15:46:54;;;;;;;2.13;1.60;;;;;;;;;;5024610;28;20184;-53
2021/05/27 15:49:20;;;;;;;1.47;1.37;;;;;;;;;;5023768;28;20197;-53
2021/05/27 15:51:47;;;;;;;1.43;1.20;;;;;;;;;;5021087;28;20593;-54
2021/05/27 15:54:16;;;;;;;1.23;0.80;;;;;;;;;;5019267;28;20210;-53
2021/05/27 15:56:44;;;;;;;2.17;0.80;;;;;;;;;;5018096;28;20245;-54
2021/05/27 15:59:15;;;;;;;2.73;0.90;;;;;;;;;;4996088;28;20214;-54
2021/05/27 16:01:40;;;;;;;1.07;0.70;;;;;;;;;;4998109;28;20659;-53
2021/05/27 16:04:08;;;;;;;1.03;0.90;;;;;;;;;;5008231;28;20218;-52
2021/05/27 16:06:35;;;;;;;1.60;1.00;;;;;;;;;;5018233;28;20179;-52
2021/05/27 16:09:00;;;;;;;0.90;0.77;;;;;;;;;;5018361;28;20197;-53
2021/05/27 16:11:26;;;;;;;0.90;0.80;;;;;;;;;;5025999;28;20546;-53
2021/05/27 16:13:51;;;;;;;0.87;0.80;;;;;;;;;;5022196;28;20190;-54
2021/05/27 16:16:18;;;;;;;0.93;0.87;;;;;;;;;;5022356;28;20210;-53
2021/05/27 16:18:46;;;;;;;1.53;0.73;;;;;;;;;;5018901;28;20668;-51
2021/05/27 16:21:11;;;;;;;1.03;0.77;;;;;;;;;;5018372;28;21032;-51
2021/05/27 16:23:39;;;;;;;1.13;0.80;;;;;;;;;;4999445;28;20207;-55
2021/05/27 16:26:04;;;;;;;1.10;0.90;;;;;;;;;;5019194;28;20179;-56
2021/05/27 16:28:30;;;;;;;1.13;0.80;;;;;;;;;;5019114;28;20598;-52
2021/05/27 16:30:55;;;;;;;2.70;1.00;;;;;;;;;;4985540;28;20183;-52
2021/05/27 16:33:22;;;;;;;3.13;1.27;;;;;;;;;;5002377;28;20237;-53
2021/05/27 16:40:50;;;;;;;4.70;2.80;;;;;;;;;;5016398;28;20186;-54
2021/05/27 16:43:21;;;;;;;4.97;2.93;;;;;;;;;;4996488;28;21137;-53
2021/05/27 16:45:47;;;;;;;7.33;3.87;;;;;;;;;;5016622;28;20261;-57
2021/05/27 16:48:15;;;;;;;10.57;4.00;;;;;;;;;;5015985;28;20183;-54
2021/05/27 16:50:43;;;;;;;6.30;3.73;;;;;;;;;;5015076;28;20192;-53
2021/05/27 16:53:11;;;;;;;6.27;3.00;;;;;;;;;;5012603;28;20206;-52
2021/05/27 16:55:39;;;;;;;3.90;2.40;;;;;;;;;;5019185;28;20210;-52
2021/05/27 16:58:05;;;;;;;3.17;1.80;;;;;;;;;;5025703;28;20202;-52
2021/05/27 17:00:30;;;;;;;3.27;1.70;;;;;;;;;;5018837;28;20182;-53
2021/05/27 17:02:58;;;;;;;4.73;1.90;;;;;;;;;;5023110;28;20203;-55
2021/05/27 17:05:23;;;;;;;2.80;1.70;;;;;;;;;;5016360;28;20704;-52
2021/05/27 17:07:53;;;;;;;3.33;1.60;;;;;;;;;;5004178;28;20179;-53
2021/05/27 17:10:21;;;;;;;2.83;1.43;;;;;;;;;;5005142;28;20209;-51
2021/05/27 17:12:54;;;;;;;2.20;1.23;;;;;;;;;;5015676;28;20570;-52
2021/05/27 17:15:22;;;;;;;1.20;1.10;;;;;;;;;;5026214;28;20221;-51
2021/05/27 17:17:49;;;;;;;2.30;1.27;;;;;;;;;;5005241;28;20209;-51
2021/05/27 17:20:15;;;;;;;2.20;1.50;;;;;;;;;;5024237;28;20317;-54
2021/05/27 17:22:43;;;;;;;11.50;1.30;;;;;;;;;;5024313;28;20318;-53
2021/05/27 17:25:15;;;;;;;2.17;1.30;;;;;;;;;;5027643;28;20190;-51
2021/05/27 17:27:42;;;;;;;2.17;1.43;;;;;;;;;;4987591;28;20179;-52
2021/05/27 17:30:10;;;;;;;3.13;1.63;;;;;;;;;;5020352;28;20180;-51
2021/05/27 17:32:38;;;;;;;2.07;1.70;;;;;;;;;;5024673;28;20214;-53
2021/05/27 17:35:07;;;;;;;2.80;1.90;;;;;;;;;;4997601;28;20275;-52
2021/05/27 17:37:33;;;;;;;6.00;3.23;;;;;;;;;;5015734;28;20186;-51
2021/05/27 17:39:58;;;;;;;5.27;3.50;;;;;;;;;;5019069;28;20270;-51
2021/05/27 17:42:25;;;;;;;9.10;4.70;;;;;;;;;;5020115;28;20215;-51
2021/05/27 17:44:51;;;;;;;6.07;3.97;;;;;;;;;;5023698;28;20194;-53
2021/05/27 17:47:21;;;;;;;8.03;3.97;;;;;;;;;;5002829;28;20190;-52
2021/05/27 17:49:49;;;;;;;4.63;3.20;;;;;;;;;;5018729;28;20197;-51
2021/05/27 17:52:14;;;;;;;4.67;3.20;;;;;;;;;;5013193;28;20226;-53
2021/05/27 17:54:39;;;;;;;3.70;2.37;;;;;;;;;;5022837;28;20194;-54
2021/05/27 17:57:09;;;;;;;4.10;2.50;;;;;;;;;;5021211;28;20248;-53
2021/05/27 17:59:34;;;;;;;4.20;2.37;;;;;;;;;;5027880;28;20187;-53
2021/05/27 18:02:04;;;;;;;4.50;2.30;;;;;;;;;;5030160;28;20215;-54
2021/05/27 18:04:34;;;;;;;5.30;2.47;;;;;;;;;;5020155;28;20310;-55
2021/05/27 18:07:00;;;;;;;2.10;1.63;;;;;;;;;;5025859;28;20201;-53
2021/05/27 18:09:25;;;;;;;3.70;1.80;;;;;;;;;;5022556;28;20190;-53
2021/05/27 18:11:55;;;;;;;3.87;2.00;;;;;;;;;;5025631;28;20606;-51
2021/05/27 18:14:23;;;;;;;3.17;2.00;;;;;;;;;;5020918;28;20285;-53
2021/05/27 18:16:53;;;;;;;1.97;1.83;;;;;;;;;;5018330;28;20213;-52
2021/05/27 18:19:20;;;;;;;2.07;1.80;;;;;;;;;;5021034;28;20201;-53
2021/05/27 18:21:48;;;;;;;3.83;2.50;;;;;;;;;;4997915;28;20218;-54
2021/05/27 18:24:16;;;;;;;6.27;2.57;;;;;;;;;;5018971;28;20198;-53
2021/05/27 18:26:44;;;;;;;3.67;2.73;;;;;;;;;;5001616;28;20212;-55
2021/05/27 18:29:11;;;;;;;5.53;3.27;;;;;;;;;;5009754;28;20734;-54
2021/05/27 18:31:41;;;;;;;5.30;3.30;;;;;;;;;;4993658;28;20187;-53
2021/05/27 18:34:12;;;;;;;3.43;3.03;;;;;;;;;;5027695;28;20186;-53
2021/05/27 18:36:39;;;;;;;4.63;3.33;;;;;;;;;;5029221;28;20248;-52
2021/05/27 18:39:08;;;;;;;4.90;3.00;;;;;;;;;;5006714;28;20190;-53
2021/05/27 18:41:38;;;;;;;6.03;2.90;;;;;;;;;;5034442;28;20183;-53
2021/05/27 18:44:09;;;;;;;4.33;3.30;;;;;;;;;;5006366;28;20232;-53
2021/05/27 18:46:38;;;;;;;3.17;2.87;;;;;;;;;;5022529;28;20273;-53
2021/05/27 18:49:06;;;;;;;5.97;3.10;;;;;;;;;;5025435;28;20198;-54
2021/05/27 18:51:31;;;;;;;7.00;2.60;;;;;;;;;;5019954;28;20217;-53
2021/05/27 18:54:02;;;;;;;5.87;2.50;;;;;;;;;;5022693;28;20183;-54
2021/05/27 18:56:27;;;;;;;3.57;2.40;;;;;;;;;;5006987;28;20225;-54
2021/05/27 18:58:52;;;;;;;4.77;3.00;;;;;;;;;;5031093;28;20269;-52
2021/05/27 19:01:22;;;;;;;5.83;3.67;;;;;;;;;;5024922;28;20616;-51
2021/05/27 19:03:51;;;;;;;3.53;2.97;;;;;;;;;;5025287;28;20613;-52
2021/05/27 19:06:22;;;;;;;9.07;3.10;;;;;;;;;;5026866;28;20206;-52
2021/05/27 19:08:48;;;;;;;3.90;3.13;;;;;;;;;;5000307;28;20189;-52
2021/05/27 19:11:17;;;;;;;5.03;3.63;;;;;;;;;;4999899;28;20183;-53
2021/05/27 19:13:47;;;;;;;2.83;2.17;;;;;;;;;;5021241;28;20195;-55
2021/05/27 19:16:13;;;;;;;4.23;2.20;;;;;;;;;;5022427;28;20257;-53
2021/05/27 19:18:44;;;;;;;3.27;2.27;;;;;;;;;;5017708;28;20598;-54
2021/05/27 19:21:15;;;;;;;4.77;2.10;;;;;;;;;;5021881;28;20313;-53
2021/05/27 19:23:45;;;;;;;4.17;2.50;;;;;;;;;;5026450;28;20219;-53
2021/05/27 19:26:16;;;;;;;2.40;2.20;;;;;;;;;;5010511;28;20203;-53
2021/05/27 19:28:42;;;;;;;4.70;2.30;;;;;;;;;;5035134;28;20195;-52
2021/05/27 19:31:07;;;;;;;3.37;2.40;;;;;;;;;;4987171;28;20571;-54
2021/05/27 19:33:33;;;;;;;7.63;2.37;;;;;;;;;;4996433;28;20202;-52
2021/05/27 19:36:03;;;;;;;4.77;2.40;;;;;;;;;;5016217;28;20293;-53
2021/05/27 19:38:28;;;;;;;4.40;2.40;;;;;;;;;;5019302;28;20198;-53
2021/05/27 19:40:55;;;;;;;3.70;2.50;;;;;;;;;;5024312;28;20219;-52
2021/05/27 19:43:23;;;;;;;4.37;2.37;;;;;;;;;;5014618;28;20222;-52
2021/05/27 19:45:50;;;;;;;2.90;2.13;;;;;;;;;;5027508;28;20268;-51
2021/05/27 19:48:15;;;;;;;2.47;2.10;;;;;;;;;;5024905;28;20192;-52
2021/05/27 19:50:41;;;;;;;3.73;2.83;;;;;;;;;;5031683;28;20307;-54
2021/05/27 19:53:09;;;;;;;3.20;2.17;;;;;;;;;;5021692;28;20242;-52
2021/05/27 19:55:34;;;;;;;2.83;2.17;;;;;;;;;;5018915;28;20202;-54
2021/05/27 19:58:02;;;;;;;5.00;2.20;;;;;;;;;;5008500;28;20207;-53
2021/05/27 20:00:29;;;;;;;3.93;2.20;;;;;;;;;;5004916;28;20931;-53
2021/05/27 20:02:57;;;;;;;4.23;2.27;;;;;;;;;;5028433;28;20210;-55
2021/05/27 20:05:24;;;;;;;4.60;2.17;;;;;;;;;;5021569;28;20202;-56
2021/05/27 20:07:50;;;;;;;3.17;2.20;;;;;;;;;;5020563;28;20673;-52
2021/05/27 20:10:19;;;;;;;6.23;2.40;;;;;;;;;;5023185;28;20187;-54
2021/05/27 20:12:45;;;;;;;3.70;2.57;;;;;;;;;;5017077;28;20211;-53
2021/05/27 20:15:11;;;;;;;4.23;2.57;;;;;;;;;;5020290;28;20206;-54
2021/05/27 20:17:41;;;;;;;4.57;2.50;;;;;;;;;;5019997;28;20187;-54
2021/05/27 20:20:12;;;;;;;4.87;2.50;;;;;;;;;;5026466;28;20221;-53
2021/05/27 20:22:40;;;;;;;3.43;2.47;;;;;;;;;;5015878;28;20218;-54
2021/05/27 20:25:07;;;;;;;4.27;2.77;;;;;;;;;;5014559;28;20285;-54
2021/05/27 20:27:33;;;;;;;3.67;2.47;;;;;;;;;;5003543;28;20306;-53